createdAt,value
2022-09-21T00:01:16.398Z,101424.09
2022-09-21T00:03:44.963Z,101423.34
2022-09-21T00:06:13.808Z,101418.84
2022-09-21T00:08:41.942Z,101429.38
2022-09-21T00:11:12.644Z,101426.13
2022-09-21T00:13:40.748Z,101423.91
2022-09-21T00:16:09.191Z,101430.44
2022-09-21T00:18:38.817Z,101430.22
2022-09-21T00:21:10.766Z,101426.94
2022-09-21T00:23:38.684Z,101431.75
2022-09-21T00:26:07.384Z,101424.25
2022-09-21T00:28:35.362Z,101425.72
2022-09-21T00:31:04.252Z,101427.50
2022-09-21T00:33:32.166Z,101423.53
2022-09-21T00:36:04.515Z,101427.81
2022-09-21T00:38:32.622Z,101432.34
2022-09-21T00:41:00.465Z,101422.59
2022-09-21T00:43:28.288Z,101427.63
2022-09-21T00:45:59.772Z,101423.88
2022-09-21T00:48:27.854Z,101428.13
2022-09-21T00:50:57.287Z,101433.63
2022-09-21T00:53:27.579Z,101422.38
2022-09-21T00:55:56.898Z,101425.16
2022-09-21T00:58:28.202Z,101436.94
2022-09-21T01:00:56.529Z,101423.09
2022-09-21T01:03:24.336Z,101428.13
2022-09-21T01:05:52.112Z,101428.38
2022-09-21T01:08:20.884Z,101438.41
2022-09-21T01:10:59.134Z,101433.38
2022-09-21T01:13:31.300Z,101439.66
2022-09-21T01:16:03.160Z,101432.41
2022-09-21T01:18:35.198Z,101433.91
2022-09-21T01:21:14.229Z,101437.91
2022-09-21T01:23:50.999Z,101442.41
2022-09-21T01:26:24.197Z,101433.66
2022-09-21T01:29:04.189Z,101437.66
2022-09-21T01:31:34.850Z,101437.91
2022-09-21T01:34:06.446Z,101436.41
2022-09-21T01:36:34.731Z,101442.41
2022-09-21T01:39:04.347Z,101445.16
2022-09-21T01:41:33.684Z,101445.41
2022-09-21T01:44:08.388Z,101451.44
2022-09-21T01:46:37.486Z,101445.91
2022-09-21T01:49:10.140Z,101455.94
2022-09-21T01:51:43.548Z,101457.41
2022-09-21T01:54:13.733Z,101456.94
2022-09-21T01:56:44.406Z,101450.44
2022-09-21T01:59:17.719Z,101454.41
2022-09-21T02:01:48.541Z,101450.91
2022-09-21T02:04:16.550Z,101454.19
2022-09-21T02:06:45.773Z,101453.16
2022-09-21T02:09:14.319Z,101445.91
2022-09-21T02:11:43.874Z,101451.91
2022-09-21T02:14:14.542Z,101448.91
2022-09-21T02:16:47.753Z,101446.41
2022-09-21T02:19:18.269Z,101444.91
2022-09-21T02:21:52.488Z,101450.91
2022-09-21T02:24:24.918Z,101447.88
2022-09-21T02:26:56.025Z,101457.88
2022-09-21T02:29:27.967Z,101444.38
2022-09-21T02:31:59.935Z,101442.91
2022-09-21T02:34:33.295Z,101446.66
2022-09-21T02:37:05.953Z,101439.88
2022-09-21T02:39:36.183Z,101447.13
2022-09-21T02:42:07.565Z,101445.38
2022-09-21T02:44:40.458Z,101449.13
2022-09-21T02:47:12.982Z,101451.13
2022-09-21T02:49:43.278Z,101447.34
2022-09-21T02:52:13.624Z,101449.59
2022-09-21T02:54:43.771Z,101446.56
2022-09-21T02:57:12.938Z,101441.81
2022-09-21T02:59:42.267Z,101443.34
2022-09-21T03:02:10.986Z,101448.31
2022-09-21T03:04:41.115Z,101443.81
2022-09-21T03:07:09.344Z,101448.78
2022-09-21T03:09:37.044Z,101439.28
2022-09-21T03:12:05.062Z,101442.81
2022-09-21T03:14:33.676Z,101448.03
2022-09-21T03:17:02.810Z,101450.00
2022-09-21T03:19:30.604Z,101447.00
2022-09-21T03:21:58.605Z,101449.75
2022-09-21T03:24:43.890Z,101460.25
2022-09-21T03:27:11.781Z,101453.47
2022-09-21T03:29:39.614Z,101454.22
2022-09-21T03:32:08.705Z,101452.00
2022-09-21T03:34:36.496Z,101457.75
2022-09-21T03:37:05.424Z,101457.47
2022-09-21T03:39:33.097Z,101466.44
2022-09-21T03:42:01.031Z,101461.16
2022-09-21T03:44:29.434Z,101461.16
2022-09-21T03:46:57.968Z,101468.13
2022-09-21T03:49:27.033Z,101474.84
2022-09-21T03:51:55.977Z,101471.59
2022-09-21T03:54:24.207Z,101465.84
2022-09-21T03:56:51.980Z,101468.81
2022-09-21T03:59:20.625Z,101467.53
2022-09-21T04:01:48.445Z,101465.75
2022-09-21T04:04:16.871Z,101467.50
2022-09-21T04:06:46.133Z,101461.75
2022-09-21T04:09:14.056Z,101469.06
2022-09-21T04:11:41.928Z,101469.56
2022-09-21T04:14:10.691Z,101471.31
2022-09-21T04:16:38.459Z,101469.84
2022-09-21T04:19:07.078Z,101476.81
2022-09-21T04:21:35.146Z,101480.31
2022-09-21T04:24:04.902Z,101475.06
2022-09-21T04:26:33.684Z,101472.78
2022-09-21T04:29:01.870Z,101468.03
2022-09-21T04:31:30.246Z,101477.00
2022-09-21T04:33:58.763Z,101476.81
2022-09-21T04:36:27.132Z,101480.78
2022-09-21T04:38:55.173Z,101487.75
2022-09-21T04:41:24.491Z,101479.25
2022-09-21T04:43:52.313Z,101487.94
2022-09-21T04:46:21.539Z,101487.69
2022-09-21T04:48:49.717Z,101485.91
2022-09-21T04:51:18.153Z,101487.38
2022-09-21T04:53:45.979Z,101483.13
2022-09-21T04:56:14.725Z,101489.59
2022-09-21T04:58:44.162Z,101493.59
2022-09-21T05:01:12.200Z,101491.59
2022-09-21T05:03:40.249Z,101497.34
2022-09-21T05:06:09.431Z,101501.38
2022-09-21T05:08:55.049Z,101504.16
2022-09-21T05:11:23.322Z,101512.69
2022-09-21T05:13:52.800Z,101520.69
2022-09-21T05:16:20.675Z,101521.97
2022-09-21T05:18:48.476Z,101521.22
2022-09-21T05:21:17.926Z,101514.19
2022-09-21T05:23:45.756Z,101521.34
2022-09-21T05:26:13.624Z,101526.88
2022-09-21T05:28:41.706Z,101532.63
2022-09-21T05:31:20.314Z,101530.31
2022-09-21T05:33:51.845Z,101529.59
2022-09-21T05:36:28.863Z,101539.31
2022-09-21T05:38:57.342Z,101535.09
2022-09-21T05:41:25.428Z,101535.66
2022-09-21T05:43:53.692Z,101541.69
2022-09-21T05:46:30.816Z,101537.44
2022-09-21T05:49:00.906Z,101539.25
2022-09-21T05:51:33.682Z,101537.50
2022-09-21T05:54:06.974Z,101536.50
2022-09-21T05:56:42.108Z,101538.53
2022-09-21T05:59:20.255Z,101549.06
2022-09-21T06:01:57.321Z,101541.13
2022-09-21T06:04:25.457Z,101542.94
2022-09-21T06:06:53.352Z,101553.72
2022-09-21T06:09:21.388Z,101550.28
2022-09-21T06:11:49.196Z,101545.56
2022-09-21T06:14:16.948Z,101547.06
2022-09-21T06:16:44.840Z,101544.84
2022-09-21T06:19:14.519Z,101547.84
2022-09-21T06:21:42.439Z,101548.84
2022-09-21T06:24:10.361Z,101542.56
2022-09-21T06:26:38.159Z,101544.28
2022-09-21T06:29:05.906Z,101549.25
2022-09-21T06:31:34.695Z,101553.16
2022-09-21T06:34:02.463Z,101555.38
2022-09-21T06:36:31.951Z,101549.59
2022-09-21T06:38:59.792Z,101548.16
2022-09-21T06:41:27.559Z,101541.47
2022-09-21T06:43:56.839Z,101556.59
2022-09-21T06:46:25.009Z,101555.00
2022-09-21T06:48:52.897Z,101564.00
2022-09-21T06:51:21.623Z,101559.22
2022-09-21T06:53:55.058Z,101560.53
2022-09-21T06:56:23.498Z,101561.25
2022-09-21T06:58:52.449Z,101572.72
2022-09-21T07:01:20.400Z,101565.47
2022-09-21T07:03:50.447Z,101565.47
2022-09-21T07:06:18.569Z,101558.47
2022-09-21T07:11:35.439Z,101576.47
2022-09-21T07:14:04.158Z,101572.34
2022-09-21T07:16:33.439Z,101574.41
2022-09-21T07:19:11.086Z,101568.69
2022-09-21T07:21:39.463Z,101574.63
2022-09-21T07:24:11.962Z,101572.31
2022-09-21T07:26:41.700Z,101582.38
2022-09-21T07:29:09.468Z,101575.88
2022-09-21T07:31:37.315Z,101575.88
2022-09-21T07:34:05.289Z,101578.66
2022-09-21T07:36:33.514Z,101575.44
2022-09-21T07:39:01.328Z,101571.59
2022-09-21T07:41:29.190Z,101567.78
2022-09-21T07:43:58.333Z,101569.47
2022-09-21T07:46:26.251Z,101577.56
2022-09-21T07:48:54.551Z,101575.00
2022-09-21T07:51:22.800Z,101575.53
2022-09-21T07:53:55.093Z,101571.69
2022-09-21T07:56:23.378Z,101570.22
2022-09-21T07:59:08.503Z,101578.50
2022-09-21T08:01:38.697Z,101566.97
2022-09-21T08:04:07.350Z,101568.59
2022-09-21T08:06:36.160Z,101574.13
2022-09-21T08:09:04.644Z,101569.38
2022-09-21T08:11:33.131Z,101575.13
2022-09-21T08:14:02.029Z,101578.47
2022-09-21T08:16:30.574Z,101572.03
2022-09-21T08:18:59.780Z,101567.78
2022-09-21T08:21:28.324Z,101574.09
2022-09-21T08:23:56.041Z,101570.22
2022-09-21T08:26:24.626Z,101576.25
2022-09-21T08:28:53.276Z,101569.16
2022-09-21T08:31:23.968Z,101577.47
2022-09-21T08:33:52.318Z,101577.00
2022-09-21T08:36:21.667Z,101570.13
2022-09-21T08:38:50.715Z,101571.97
2022-09-21T08:41:19.853Z,101574.81
2022-09-21T08:43:50.554Z,101571.69
2022-09-21T08:46:19.447Z,101572.44
2022-09-21T08:48:50.267Z,101579.75
2022-09-21T08:51:22.783Z,101574.72
2022-09-21T08:53:53.002Z,101579.97
2022-09-21T08:56:21.552Z,101566.63
2022-09-21T08:58:49.408Z,101563.75
2022-09-21T09:01:32.078Z,101562.63
2022-09-21T09:04:06.067Z,101563.06
2022-09-21T09:06:40.324Z,101560.09
2022-09-21T09:09:21.445Z,101560.41
2022-09-21T09:11:58.603Z,101563.47
2022-09-21T09:14:37.867Z,101561.66
2022-09-21T09:17:16.040Z,101559.66
2022-09-21T09:19:47.833Z,101560.94
2022-09-21T09:22:18.584Z,101559.84
2022-09-21T09:24:49.947Z,101553.88
2022-09-21T09:27:20.310Z,101552.28
2022-09-21T09:29:51.325Z,101557.09
2022-09-21T09:32:19.168Z,101546.50
2022-09-21T09:34:53.439Z,101547.44
2022-09-21T09:37:24.476Z,101543.91
2022-09-21T09:39:57.768Z,101542.22
2022-09-21T09:42:33.701Z,101539.03
2022-09-21T09:45:14.860Z,101535.88
2022-09-21T09:47:48.085Z,101531.41
2022-09-21T09:50:21.766Z,101539.34
2022-09-21T09:52:50.227Z,101520.59
2022-09-21T09:55:21.732Z,101527.81
2022-09-21T09:57:50.194Z,101531.28
2022-09-21T10:00:19.012Z,101520.44
2022-09-21T10:02:49.314Z,101510.81
2022-09-21T10:05:21.982Z,101514.69
2022-09-21T10:07:49.943Z,101516.78
2022-09-21T10:10:38.843Z,101521.28
2022-09-21T10:13:12.668Z,101513.94
2022-09-21T10:15:45.188Z,101509.88
2022-09-21T10:18:17.636Z,101511.13
2022-09-21T10:20:57.786Z,101514.34
2022-09-21T10:23:27.810Z,101509.72
2022-09-21T10:25:59.338Z,101512.00
2022-09-21T10:28:30.876Z,101518.53
2022-09-21T10:31:13.080Z,101513.16
2022-09-21T10:33:53.384Z,101509.56
2022-09-21T10:36:32.021Z,101516.06
2022-09-21T10:39:22.814Z,101505.41
2022-09-21T10:41:51.654Z,101498.59
2022-09-21T10:44:22.445Z,101500.53
2022-09-21T10:46:50.928Z,101505.94
2022-09-21T10:49:22.416Z,101487.03
2022-09-21T10:51:51.987Z,101481.94
2022-09-21T10:54:22.836Z,101485.59
2022-09-21T10:56:52.059Z,101487.50
2022-09-21T10:59:25.582Z,101482.47
2022-09-21T11:01:54.385Z,101481.00
2022-09-21T11:04:29.647Z,101485.88
2022-09-21T11:07:02.109Z,101479.22
2022-09-21T11:09:34.189Z,101478.41
2022-09-21T11:12:05.099Z,101480.16
2022-09-21T11:14:41.052Z,101476.88
2022-09-21T11:17:11.625Z,101483.25
2022-09-21T11:19:42.708Z,101482.63
2022-09-21T11:22:15.818Z,101476.06
2022-09-21T11:24:50.143Z,101480.66
2022-09-21T11:27:19.487Z,101471.50
2022-09-21T11:29:54.821Z,101472.25
2022-09-21T11:32:32.803Z,101462.91
2022-09-21T11:35:10.696Z,101463.31
2022-09-21T11:37:46.969Z,101462.94
2022-09-21T11:40:25.111Z,101465.44
2022-09-21T11:43:01.644Z,101453.13
2022-09-21T11:45:50.621Z,101454.06
2022-09-21T11:48:24.807Z,101455.47
2022-09-21T11:50:59.240Z,101459.34
2022-09-21T11:53:32.932Z,101454.53
2022-09-21T11:56:17.314Z,101452.22
2022-09-21T11:58:52.946Z,101457.75
2022-09-21T12:01:34.940Z,101454.16
2022-09-21T12:04:10.972Z,101461.84
2022-09-21T12:06:44.018Z,101447.28
2022-09-21T12:09:20.999Z,101441.00
2022-09-21T12:11:52.449Z,101442.16
2022-09-21T12:14:26.147Z,101444.16
2022-09-21T12:16:58.865Z,101440.00
2022-09-21T12:19:33.664Z,101430.84
2022-09-21T12:22:05.022Z,101437.88
2022-09-21T12:24:35.868Z,101433.47
2022-09-21T12:27:06.085Z,101430.25
2022-09-21T12:29:39.049Z,101418.41
2022-09-21T12:32:11.911Z,101425.44
2022-09-21T12:34:42.019Z,101423.50
2022-09-21T12:37:13.904Z,101419.31
2022-09-21T12:39:44.588Z,101428.81
2022-09-21T12:42:18.330Z,101425.28
2022-09-21T12:44:54.792Z,101422.78
2022-09-21T12:47:27.953Z,101420.44
2022-09-21T12:49:59.545Z,101426.78
2022-09-21T12:52:28.469Z,101417.94
2022-09-21T12:54:59.819Z,101413.41
2022-09-21T12:58:10.792Z,101424.56
2022-09-21T13:00:23.923Z,101414.84
2022-09-21T13:02:55.779Z,101408.56
2022-09-21T13:05:30.539Z,101418.22
2022-09-21T13:08:01.920Z,101414.75
2022-09-21T13:10:39.666Z,101410.84
2022-09-21T13:13:10.534Z,101410.34
2022-09-21T13:15:44.086Z,101411.91
2022-09-21T13:18:19.200Z,101406.97
2022-09-21T13:20:47.376Z,101402.16
2022-09-21T13:23:17.152Z,101403.63
2022-09-21T13:25:48.917Z,101407.16
2022-09-21T13:28:24.061Z,101399.25
2022-09-21T13:31:23.653Z,101402.78
2022-09-21T13:34:17.662Z,101401.41
2022-09-21T13:36:45.501Z,101400.72
2022-09-21T13:39:17.976Z,101398.31
2022-09-21T13:42:02.492Z,101389.03
2022-09-21T13:44:43.255Z,101380.78
2022-09-21T13:47:14.618Z,101388.38
2022-09-21T13:49:50.706Z,101379.38
2022-09-21T13:52:36.242Z,101378.69
2022-09-21T13:55:05.857Z,101380.03
2022-09-21T13:57:37.810Z,101370.84
2022-09-21T14:00:08.873Z,101373.44
2022-09-21T14:02:45.869Z,101374.97
2022-09-21T14:05:25.747Z,101372.66
2022-09-21T14:07:56.106Z,101375.38
2022-09-21T14:10:24.125Z,101359.19
2022-09-21T14:12:51.987Z,101369.00
2022-09-21T14:15:39.746Z,101369.41
2022-09-21T14:18:25.357Z,101363.09
2022-09-21T14:21:10.529Z,101360.25
2022-09-21T14:23:38.828Z,101359.97
2022-09-21T14:26:22.271Z,101367.78
2022-09-21T14:28:52.480Z,101366.19
2022-09-21T14:31:23.085Z,101364.81
2022-09-21T14:33:53.480Z,101359.06
2022-09-21T14:36:28.499Z,101361.91
2022-09-21T14:39:00.446Z,101358.34
2022-09-21T14:41:33.996Z,101355.28
2022-09-21T14:44:02.039Z,101348.44
2022-09-21T14:46:38.083Z,101358.34
2022-09-21T14:49:12.537Z,101345.94
2022-09-21T14:51:47.271Z,101344.59
2022-09-21T14:54:26.046Z,101349.78
2022-09-21T14:57:08.555Z,101346.41
2022-09-21T14:59:44.591Z,101336.13
2022-09-21T15:02:17.569Z,101336.59
2022-09-21T15:04:54.624Z,101341.09
2022-09-21T15:07:47.032Z,101335.56
2022-09-21T15:10:41.909Z,101331.97
2022-09-21T15:13:20.157Z,101336.72
2022-09-21T15:15:53.181Z,101327.78
2022-09-21T15:18:21.999Z,101331.88
2022-09-21T15:21:01.538Z,101326.69
2022-09-21T15:23:32.893Z,101317.34
2022-09-21T15:26:02.619Z,101320.16
2022-09-21T15:28:57.883Z,101329.63
2022-09-21T15:31:23.535Z,101323.84
2022-09-21T15:33:52.831Z,101319.75
2022-09-21T15:36:21.765Z,101311.44
2022-09-21T15:38:51.526Z,101316.88
2022-09-21T15:41:39.375Z,101316.44
2022-09-21T15:44:13.225Z,101313.97
2022-09-21T15:46:44.042Z,101304.47
2022-09-21T15:49:13.198Z,101314.97
2022-09-21T15:51:44.843Z,101306.28
2022-09-21T15:54:21.734Z,101299.94
2022-09-21T15:56:49.530Z,101303.00
2022-09-21T15:59:18.463Z,101308.75
2022-09-21T16:01:47.958Z,101306.41
2022-09-21T16:04:17.583Z,101314.75
2022-09-21T16:06:47.655Z,101310.75
2022-09-21T16:09:36.405Z,101310.84
2022-09-21T16:12:25.668Z,101304.78
2022-09-21T16:14:57.299Z,101311.53
2022-09-21T16:17:28.282Z,101313.72
2022-09-21T16:20:17.224Z,101315.69
2022-09-21T16:22:47.377Z,101318.94
2022-09-21T16:25:22.839Z,101316.22
2022-09-21T16:27:54.263Z,101320.06
2022-09-21T16:30:37.205Z,101326.94
2022-09-21T16:33:25.248Z,101335.41
2022-09-21T16:35:53.091Z,101326.66
2022-09-21T16:38:23.278Z,101320.66
2022-09-21T16:40:51.846Z,101325.63
2022-09-21T16:43:23.169Z,101324.47
2022-09-21T16:45:51.105Z,101325.31
2022-09-21T16:48:19.586Z,101337.09
2022-09-21T16:50:48.541Z,101329.13
2022-09-21T16:53:16.786Z,101328.72
2022-09-21T16:55:46.249Z,101329.91
2022-09-21T16:58:14.049Z,101332.03
2022-09-21T17:00:43.517Z,101331.34
2022-09-21T17:03:14.214Z,101334.34
2022-09-21T17:05:42.163Z,101336.81
2022-09-21T17:08:10.765Z,101331.81
2022-09-21T17:10:40.648Z,101332.41
2022-09-21T17:13:09.058Z,101337.28
2022-09-21T17:15:37.431Z,101334.84
2022-09-21T17:18:07.014Z,101336.94
2022-09-21T17:20:35.734Z,101339.19
2022-09-21T17:23:04.151Z,101326.91
2022-09-21T17:25:32.744Z,101337.09
2022-09-21T17:28:58.245Z,101342.63
2022-09-21T17:31:28.040Z,101334.41
2022-09-21T17:33:57.120Z,101340.84
2022-09-21T17:36:25.143Z,101341.16
2022-09-21T17:38:53.302Z,101341.13
2022-09-21T17:41:26.217Z,101340.69
2022-09-21T17:44:06.506Z,101341.19
2022-09-21T17:46:42.244Z,101339.13
2022-09-21T17:49:12.124Z,101340.00
2022-09-21T17:51:57.741Z,101342.31
2022-09-21T17:54:26.093Z,101346.81
2022-09-21T17:57:02.956Z,101343.00
2022-09-21T17:59:34.059Z,101355.56
2022-09-21T18:02:04.849Z,101348.41
2022-09-21T18:04:37.328Z,101349.75
2022-09-21T18:07:05.855Z,101347.81
2022-09-21T18:09:34.600Z,101352.88
2022-09-21T18:12:36.670Z,101348.44
2022-09-21T18:15:14.989Z,101350.06
2022-09-21T18:18:01.370Z,101349.09
2022-09-21T18:20:42.276Z,101355.94
2022-09-21T18:23:22.704Z,101357.44
2022-09-21T18:25:56.447Z,101360.09
2022-09-21T18:28:40.471Z,101358.19
2022-09-21T18:31:41.854Z,101359.81
2022-09-21T18:34:31.380Z,101362.00
2022-09-21T18:37:12.792Z,101362.50
2022-09-21T18:39:51.485Z,101372.78
2022-09-21T18:42:30.399Z,101368.19
2022-09-21T18:45:05.165Z,101366.81
2022-09-21T18:47:43.048Z,101379.63
2022-09-21T18:50:23.511Z,101377.25
2022-09-21T18:52:59.649Z,101373.00
2022-09-21T18:55:31.249Z,101375.97
2022-09-21T18:58:00.748Z,101380.75
2022-09-21T19:00:32.736Z,101378.59
2022-09-21T19:03:17.110Z,101377.97
2022-09-21T19:05:56.766Z,101371.97
2022-09-21T19:08:32.418Z,101384.66
2022-09-21T19:11:09.644Z,101381.13
2022-09-21T19:13:46.765Z,101380.28
2022-09-21T19:16:25.263Z,101383.44
2022-09-21T19:19:10.104Z,101384.56
2022-09-21T19:21:46.349Z,101387.19
2022-09-21T19:24:22.133Z,101390.06
2022-09-21T19:26:55.841Z,101388.25
2022-09-21T19:29:54.504Z,101381.88
2022-09-21T19:32:32.660Z,101383.53
2022-09-21T19:35:17.565Z,101382.34
2022-09-21T19:37:47.057Z,101388.19
2022-09-21T19:40:16.485Z,101389.47
2022-09-21T19:43:00.081Z,101387.66
2022-09-21T19:45:32.981Z,101382.34
2022-09-21T19:48:05.208Z,101380.56
2022-09-21T19:50:41.842Z,101381.84
2022-09-21T19:53:44.249Z,101381.38
2022-09-21T19:56:32.459Z,101382.00
2022-09-21T19:59:18.966Z,101379.53
2022-09-21T20:01:52.769Z,101374.28
2022-09-21T20:04:27.542Z,101373.41
2022-09-21T20:07:03.698Z,101373.78
2022-09-21T20:09:40.168Z,101375.34
2022-09-21T20:12:16.047Z,101372.56
2022-09-21T20:14:49.940Z,101371.69
2022-09-21T20:17:22.814Z,101371.44
2022-09-21T20:19:55.852Z,101378.03
2022-09-21T20:22:40.511Z,101380.06
2022-09-21T20:25:16.502Z,101377.78
2022-09-21T20:27:48.089Z,101377.34
2022-09-21T20:30:18.914Z,101373.88
2022-09-21T20:32:49.925Z,101375.44
2022-09-21T20:35:20.829Z,101368.19
2022-09-21T20:37:51.546Z,101375.34
2022-09-21T20:40:24.816Z,101372.84
2022-09-21T20:42:53.276Z,101367.63
2022-09-21T20:45:22.137Z,101372.69
2022-09-21T20:47:50.792Z,101375.00
2022-09-21T20:50:19.882Z,101375.78
2022-09-21T20:52:48.054Z,101369.59
2022-09-21T20:55:20.296Z,101370.81
2022-09-21T20:57:48.171Z,101365.53
2022-09-21T21:00:18.158Z,101365.09
2022-09-21T21:02:46.162Z,101371.66
2022-09-21T21:05:14.180Z,101362.44
2022-09-21T21:07:43.331Z,101367.47
2022-09-21T21:10:13.171Z,101363.25
2022-09-21T21:12:43.300Z,101370.56
2022-09-21T21:15:12.421Z,101366.59
2022-09-21T21:17:40.905Z,101365.44
2022-09-21T21:20:10.267Z,101368.78
2022-09-21T21:22:38.438Z,101369.47
2022-09-21T21:25:06.822Z,101361.97
2022-09-21T21:27:35.687Z,101362.97
2022-09-21T21:30:06.906Z,101362.50
2022-09-21T21:32:35.595Z,101354.53
2022-09-21T21:35:04.130Z,101360.63
2022-09-21T21:37:32.291Z,101353.22
2022-09-21T21:40:00.467Z,101354.00
2022-09-21T21:42:29.515Z,101354.94
2022-09-21T21:44:57.723Z,101356.72
2022-09-21T21:47:39.135Z,101345.91
2022-09-21T21:50:09.211Z,101351.69
2022-09-21T21:52:37.239Z,101346.22
2022-09-21T21:55:06.318Z,101349.72
2022-09-21T21:57:34.738Z,101348.19
2022-09-21T22:00:03.115Z,101343.41
2022-09-21T22:02:33.846Z,101349.41
2022-09-21T22:05:01.903Z,101345.91
2022-09-21T22:07:29.832Z,101342.66
2022-09-21T22:09:57.814Z,101354.25
2022-09-21T22:12:26.062Z,101348.97
2022-09-21T22:14:54.052Z,101345.78
2022-09-21T22:17:22.126Z,101343.03
2022-09-21T22:19:51.386Z,101337.28
2022-09-21T22:22:19.329Z,101346.59
2022-09-21T22:24:47.999Z,101345.84
2022-09-21T22:27:16.369Z,101342.06
2022-09-21T22:29:44.864Z,101333.53
2022-09-21T22:32:12.786Z,101339.34
2022-09-21T22:34:40.761Z,101340.88
2022-09-21T22:37:10.049Z,101333.63
2022-09-21T22:39:37.974Z,101327.69
2022-09-21T22:42:06.228Z,101333.94
2022-09-21T22:44:34.382Z,101329.72
2022-09-21T22:47:02.598Z,101333.22
2022-09-21T22:49:30.506Z,101328.25
2022-09-21T22:51:58.388Z,101337.78
2022-09-21T22:54:28.232Z,101332.53
2022-09-21T22:56:56.246Z,101335.34
2022-09-21T22:59:24.204Z,101334.59
2022-09-21T23:01:52.263Z,101337.66
2022-09-21T23:04:21.063Z,101341.19
2022-09-21T23:06:50.143Z,101338.19
2022-09-21T23:09:20.687Z,101335.94
2022-09-21T23:11:53.404Z,101329.72
2022-09-21T23:14:22.691Z,101325.97
2022-09-21T23:16:50.846Z,101330.75
2022-09-21T23:19:18.792Z,101328.47
2022-09-21T23:21:49.387Z,101330.00
2022-09-21T23:24:17.941Z,101327.25
2022-09-21T23:26:46.735Z,101327.72
2022-09-21T23:29:17.108Z,101323.94
2022-09-21T23:31:46.397Z,101319.94
2022-09-21T23:34:15.695Z,101321.72
2022-09-21T23:36:44.815Z,101312.19
2022-09-21T23:39:14.319Z,101329.22
2022-09-21T23:41:42.438Z,101319.38
2022-09-21T23:44:10.370Z,101320.13
2022-09-21T23:46:40.875Z,101322.63
2022-09-21T23:49:09.183Z,101312.38
2022-09-21T23:51:37.336Z,101317.69
2022-09-21T23:54:05.670Z,101322.22
2022-09-21T23:56:34.302Z,101328.50
2022-09-21T23:59:02.251Z,101318.25
